sensor_id;sensor_type;location;lat;lon;timestamp;P1;durP1;ratioP1;P2;durP2;ratioP2
50757;SDS011;36732;47.980;11.652;2023-05-08T00:01:10;3.22;;;2.92;;
50757;SDS011;36732;47.980;11.652;2023-05-08T00:03:36;3.25;;;2.95;;
50757;SDS011;36732;47.980;11.652;2023-05-08T00:06:05;3.22;;;2.72;;
50757;SDS011;36732;47.980;11.652;2023-05-08T00:08:31;3.00;;;2.20;;
50757;SDS011;36732;47.980;11.652;2023-05-08T00:10:57;3.00;;;2.65;;
50757;SDS011;36732;47.980;11.652;2023-05-08T00:13:22;2.80;;;2.50;;
50757;SDS011;36732;47.980;11.652;2023-05-08T00:15:48;3.10;;;2.40;;
50757;SDS011;36732;47.980;11.652;2023-05-08T00:18:14;2.42;;;2.22;;
50757;SDS011;36732;47.980;11.652;2023-05-08T00:20:40;2.22;;;1.95;;
50757;SDS011;36732;47.980;11.652;2023-05-08T00:23:06;2.50;;;2.17;;
50757;SDS011;36732;47.980;11.652;2023-05-08T00:25:32;3.03;;;2.00;;
50757;SDS011;36732;47.980;11.652;2023-05-08T00:27:58;4.68;;;2.60;;
50757;SDS011;36732;47.980;11.652;2023-05-08T00:30:24;4.28;;;2.78;;
50757;SDS011;36732;47.980;11.652;2023-05-08T00:32:51;2.92;;;2.50;;
50757;SDS011;36732;47.980;11.652;2023-05-08T00:35:17;2.80;;;2.60;;
50757;SDS011;36732;47.980;11.652;2023-05-08T00:37:43;4.38;;;2.70;;
50757;SDS011;36732;47.980;11.652;2023-05-08T00:40:09;2.53;;;2.33;;
50757;SDS011;36732;47.980;11.652;2023-05-08T00:42:35;3.35;;;2.55;;
50757;SDS011;36732;47.980;11.652;2023-05-08T00:45:02;2.70;;;2.33;;
50757;SDS011;36732;47.980;11.652;2023-05-08T00:47:29;2.55;;;2.35;;
50757;SDS011;36732;47.980;11.652;2023-05-08T00:49:56;4.47;;;2.38;;
50757;SDS011;36732;47.980;11.652;2023-05-08T00:52:23;4.53;;;2.30;;
50757;SDS011;36732;47.980;11.652;2023-05-08T00:54:51;3.92;;;2.63;;
50757;SDS011;36732;47.980;11.652;2023-05-08T00:57:18;5.30;;;2.70;;
50757;SDS011;36732;47.980;11.652;2023-05-08T00:59:46;2.53;;;2.25;;
50757;SDS011;36732;47.980;11.652;2023-05-08T01:02:13;3.75;;;2.28;;
50757;SDS011;36732;47.980;11.652;2023-05-08T01:04:40;2.92;;;2.33;;
50757;SDS011;36732;47.980;11.652;2023-05-08T01:07:09;3.20;;;2.67;;
50757;SDS011;36732;47.980;11.652;2023-05-08T01:09:35;2.40;;;2.20;;
50757;SDS011;36732;47.980;11.652;2023-05-08T01:15:31;3.00;;;2.30;;
50757;SDS011;36732;47.980;11.652;2023-05-08T01:21:01;3.92;;;2.50;;
50757;SDS011;36732;47.980;11.652;2023-05-08T01:44:44;2.45;;;2.25;;
50757;SDS011;36732;47.980;11.652;2023-05-08T01:47:16;2.63;;;2.42;;
50757;SDS011;36732;47.980;11.652;2023-05-08T01:49:48;3.60;;;2.50;;
50757;SDS011;36732;47.980;11.652;2023-05-08T01:52:27;3.03;;;2.30;;
50757;SDS011;36732;47.980;11.652;2023-05-08T01:55:03;2.80;;;2.60;;
50757;SDS011;36732;47.980;11.652;2023-05-08T01:57:34;3.55;;;2.72;;
50757;SDS011;36732;47.980;11.652;2023-05-08T02:00:06;3.58;;;2.90;;
50757;SDS011;36732;47.980;11.652;2023-05-08T02:02:33;4.63;;;3.05;;
50757;SDS011;36732;47.980;11.652;2023-05-08T02:05:01;3.00;;;2.72;;
50757;SDS011;36732;47.980;11.652;2023-05-08T02:07:29;5.03;;;2.95;;
50757;SDS011;36732;47.980;11.652;2023-05-08T02:09:58;3.05;;;2.80;;
50757;SDS011;36732;47.980;11.652;2023-05-08T02:12:25;3.33;;;3.03;;
50757;SDS011;36732;47.980;11.652;2023-05-08T02:14:52;4.65;;;3.08;;
50757;SDS011;36732;47.980;11.652;2023-05-08T02:17:19;3.40;;;3.10;;
50757;SDS011;36732;47.980;11.652;2023-05-08T02:19:45;5.25;;;3.05;;
50757;SDS011;36732;47.980;11.652;2023-05-08T02:22:13;3.10;;;2.90;;
50757;SDS011;36732;47.980;11.652;2023-05-08T02:24:41;2.95;;;2.70;;
50757;SDS011;36732;47.980;11.652;2023-05-08T02:27:09;3.63;;;3.13;;
50757;SDS011;36732;47.980;11.652;2023-05-08T02:29:36;3.72;;;2.67;;
50757;SDS011;36732;47.980;11.652;2023-05-08T02:32:02;4.28;;;2.90;;
50757;SDS011;36732;47.980;11.652;2023-05-08T02:34:30;4.82;;;3.00;;
50757;SDS011;36732;47.980;11.652;2023-05-08T02:36:56;3.80;;;2.67;;
50757;SDS011;36732;47.980;11.652;2023-05-08T02:39:27;3.22;;;2.92;;
50757;SDS011;36732;47.980;11.652;2023-05-08T02:41:54;3.28;;;2.80;;
50757;SDS011;36732;47.980;11.652;2023-05-08T02:44:21;5.10;;;3.20;;
50757;SDS011;36732;47.980;11.652;2023-05-08T02:46:48;4.10;;;3.00;;
50757;SDS011;36732;47.980;11.652;2023-05-08T02:52:16;3.38;;;3.08;;
50757;SDS011;36732;47.980;11.652;2023-05-08T02:55:03;4.53;;;2.90;;
50757;SDS011;36732;47.980;11.652;2023-05-08T02:58:05;4.95;;;2.92;;
50757;SDS011;36732;47.980;11.652;2023-05-08T03:00:52;3.17;;;2.80;;
50757;SDS011;36732;47.980;11.652;2023-05-08T03:03:30;2.55;;;2.35;;
50757;SDS011;36732;47.980;11.652;2023-05-08T03:06:03;3.03;;;2.70;;
50757;SDS011;36732;47.980;11.652;2023-05-08T03:08:34;4.22;;;2.75;;
50757;SDS011;36732;47.980;11.652;2023-05-08T03:11:01;3.40;;;2.38;;
50757;SDS011;36732;47.980;11.652;2023-05-08T03:13:33;3.73;;;2.40;;
50757;SDS011;36732;47.980;11.652;2023-05-08T03:16:01;3.63;;;3.05;;
50757;SDS011;36732;47.980;11.652;2023-05-08T03:19:04;9.63;;;3.63;;
50757;SDS011;36732;47.980;11.652;2023-05-08T03:21:26;3.83;;;3.13;;
50757;SDS011;36732;47.980;11.652;2023-05-08T03:23:54;3.75;;;3.33;;
50757;SDS011;36732;47.980;11.652;2023-05-08T03:26:24;3.88;;;3.55;;
50757;SDS011;36732;47.980;11.652;2023-05-08T03:28:50;3.88;;;3.08;;
50757;SDS011;36732;47.980;11.652;2023-05-08T03:31:18;3.55;;;3.25;;
50757;SDS011;36732;47.980;11.652;2023-05-08T03:33:46;3.58;;;3.15;;
50757;SDS011;36732;47.980;11.652;2023-05-08T03:36:13;3.83;;;3.15;;
50757;SDS011;36732;47.980;11.652;2023-05-08T03:38:40;4.13;;;3.22;;
50757;SDS011;36732;47.980;11.652;2023-05-08T03:41:06;3.92;;;3.08;;
50757;SDS011;36732;47.980;11.652;2023-05-08T03:43:32;3.35;;;3.05;;
50757;SDS011;36732;47.980;11.652;2023-05-08T03:46:00;6.38;;;3.45;;
50757;SDS011;36732;47.980;11.652;2023-05-08T03:48:26;4.70;;;3.20;;
50757;SDS011;36732;47.980;11.652;2023-05-08T03:50:55;4.03;;;3.05;;
50757;SDS011;36732;47.980;11.652;2023-05-08T03:53:22;3.92;;;2.83;;
50757;SDS011;36732;47.980;11.652;2023-05-08T03:55:48;4.32;;;3.17;;
50757;SDS011;36732;47.980;11.652;2023-05-08T04:06:24;4.75;;;4.30;;
50757;SDS011;36732;47.980;11.652;2023-05-08T04:14:49;7.03;;;6.20;;
50757;SDS011;36732;47.980;11.652;2023-05-08T04:20:18;5.93;;;5.20;;
50757;SDS011;36732;47.980;11.652;2023-05-08T04:22:46;6.85;;;5.75;;
50757;SDS011;36732;47.980;11.652;2023-05-08T04:25:15;6.82;;;5.78;;
50757;SDS011;36732;47.980;11.652;2023-05-08T04:27:43;7.28;;;6.35;;
50757;SDS011;36732;47.980;11.652;2023-05-08T04:30:10;9.52;;;6.22;;
50757;SDS011;36732;47.980;11.652;2023-05-08T04:32:37;6.30;;;5.70;;
50757;SDS011;36732;47.980;11.652;2023-05-08T04:35:04;6.30;;;5.70;;
50757;SDS011;36732;47.980;11.652;2023-05-08T04:37:30;7.05;;;6.35;;
50757;SDS011;36732;47.980;11.652;2023-05-08T04:39:57;6.75;;;6.15;;
50757;SDS011;36732;47.980;11.652;2023-05-08T04:42:23;8.45;;;6.43;;
50757;SDS011;36732;47.980;11.652;2023-05-08T04:44:52;10.02;;;6.35;;
50757;SDS011;36732;47.980;11.652;2023-05-08T04:47:18;7.55;;;6.22;;
50757;SDS011;36732;47.980;11.652;2023-05-08T04:49:45;7.32;;;5.65;;
50757;SDS011;36732;47.980;11.652;2023-05-08T04:52:10;7.13;;;6.10;;
50757;SDS011;36732;47.980;11.652;2023-05-08T04:54:36;7.55;;;6.18;;
50757;SDS011;36732;47.980;11.652;2023-05-08T04:57:02;8.93;;;6.97;;
50757;SDS011;36732;47.980;11.652;2023-05-08T04:59:28;10.35;;;7.72;;
50757;SDS011;36732;47.980;11.652;2023-05-08T05:01:57;7.63;;;5.93;;
50757;SDS011;36732;47.980;11.652;2023-05-08T05:04:23;7.22;;;6.53;;
50757;SDS011;36732;47.980;11.652;2023-05-08T05:06:48;9.50;;;6.78;;
50757;SDS011;36732;47.980;11.652;2023-05-08T05:09:14;10.18;;;7.00;;
50757;SDS011;36732;47.980;11.652;2023-05-08T05:11:40;7.75;;;6.78;;
50757;SDS011;36732;47.980;11.652;2023-05-08T05:14:06;8.80;;;7.38;;
50757;SDS011;36732;47.980;11.652;2023-05-08T05:16:32;7.90;;;7.10;;
50757;SDS011;36732;47.980;11.652;2023-05-08T05:18:58;9.13;;;7.53;;
50757;SDS011;36732;47.980;11.652;2023-05-08T05:21:24;9.35;;;7.60;;
50757;SDS011;36732;47.980;11.652;2023-05-08T05:23:50;9.55;;;6.95;;
50757;SDS011;36732;47.980;11.652;2023-05-08T05:26:15;7.03;;;6.32;;
50757;SDS011;36732;47.980;11.652;2023-05-08T05:28:42;8.15;;;6.90;;
50757;SDS011;36732;47.980;11.652;2023-05-08T05:31:08;7.60;;;6.90;;
50757;SDS011;36732;47.980;11.652;2023-05-08T05:33:34;7.88;;;7.07;;
50757;SDS011;36732;47.980;11.652;2023-05-08T05:36:00;8.30;;;7.03;;
50757;SDS011;36732;47.980;11.652;2023-05-08T05:38:26;8.93;;;6.47;;
50757;SDS011;36732;47.980;11.652;2023-05-08T05:40:52;8.02;;;7.22;;
50757;SDS011;36732;47.980;11.652;2023-05-08T05:43:17;8.82;;;6.38;;
50757;SDS011;36732;47.980;11.652;2023-05-08T05:45:43;10.05;;;7.70;;
50757;SDS011;36732;47.980;11.652;2023-05-08T05:48:09;8.68;;;6.25;;
50757;SDS011;36732;47.980;11.652;2023-05-08T05:50:35;8.57;;;7.05;;
50757;SDS011;36732;47.980;11.652;2023-05-08T05:53:02;8.02;;;7.15;;
50757;SDS011;36732;47.980;11.652;2023-05-08T05:55:27;7.78;;;6.90;;
50757;SDS011;36732;47.980;11.652;2023-05-08T05:57:53;7.35;;;6.63;;
50757;SDS011;36732;47.980;11.652;2023-05-08T06:00:19;20.55;;;8.25;;
50757;SDS011;36732;47.980;11.652;2023-05-08T06:02:46;15.05;;;7.63;;
50757;SDS011;36732;47.980;11.652;2023-05-08T06:05:12;7.05;;;6.40;;
50757;SDS011;36732;47.980;11.652;2023-05-08T06:07:37;7.22;;;6.53;;
50757;SDS011;36732;47.980;11.652;2023-05-08T06:10:03;6.68;;;6.00;;
50757;SDS011;36732;47.980;11.652;2023-05-08T06:12:30;6.95;;;6.25;;
50757;SDS011;36732;47.980;11.652;2023-05-08T06:14:56;7.13;;;6.22;;
50757;SDS011;36732;47.980;11.652;2023-05-08T06:17:22;8.88;;;6.43;;
50757;SDS011;36732;47.980;11.652;2023-05-08T06:19:47;8.38;;;6.60;;
50757;SDS011;36732;47.980;11.652;2023-05-08T06:22:17;7.60;;;6.80;;
50757;SDS011;36732;47.980;11.652;2023-05-08T06:24:45;7.68;;;6.15;;
50757;SDS011;36732;47.980;11.652;2023-05-08T06:27:11;6.57;;;5.53;;
50757;SDS011;36732;47.980;11.652;2023-05-08T06:29:37;7.88;;;7.07;;
50757;SDS011;36732;47.980;11.652;2023-05-08T06:32:02;7.85;;;6.70;;
50757;SDS011;36732;47.980;11.652;2023-05-08T06:34:28;7.78;;;6.78;;
50757;SDS011;36732;47.980;11.652;2023-05-08T06:36:55;7.43;;;6.63;;
50757;SDS011;36732;47.980;11.652;2023-05-08T06:39:21;7.50;;;6.70;;
50757;SDS011;36732;47.980;11.652;2023-05-08T06:41:46;7.43;;;6.72;;
50757;SDS011;36732;47.980;11.652;2023-05-08T06:44:13;7.00;;;5.85;;
50757;SDS011;36732;47.980;11.652;2023-05-08T06:46:39;9.15;;;6.40;;
50757;SDS011;36732;47.980;11.652;2023-05-08T06:49:05;6.93;;;6.15;;
50757;SDS011;36732;47.980;11.652;2023-05-08T06:51:31;5.93;;;5.43;;
50757;SDS011;36732;47.980;11.652;2023-05-08T06:53:59;6.85;;;6.15;;
50757;SDS011;36732;47.980;11.652;2023-05-08T06:56:25;6.55;;;5.88;;
50757;SDS011;36732;47.980;11.652;2023-05-08T06:58:51;7.90;;;6.75;;
50757;SDS011;36732;47.980;11.652;2023-05-08T07:01:17;7.72;;;6.35;;
50757;SDS011;36732;47.980;11.652;2023-05-08T07:03:43;7.32;;;6.43;;
50757;SDS011;36732;47.980;11.652;2023-05-08T07:06:08;8.57;;;6.55;;
50757;SDS011;36732;47.980;11.652;2023-05-08T07:08:34;8.77;;;6.07;;
50757;SDS011;36732;47.980;11.652;2023-05-08T07:11:01;7.10;;;6.40;;
50757;SDS011;36732;47.980;11.652;2023-05-08T07:13:27;6.60;;;6.00;;
50757;SDS011;36732;47.980;11.652;2023-05-08T07:15:53;6.93;;;6.13;;
50757;SDS011;36732;47.980;11.652;2023-05-08T07:18:20;7.47;;;6.30;;
50757;SDS011;36732;47.980;11.652;2023-05-08T07:20:45;8.90;;;5.72;;
50757;SDS011;36732;47.980;11.652;2023-05-08T07:23:11;7.00;;;6.25;;
50757;SDS011;36732;47.980;11.652;2023-05-08T07:25:37;6.97;;;6.25;;
50757;SDS011;36732;47.980;11.652;2023-05-08T07:28:03;7.35;;;6.15;;
50757;SDS011;36732;47.980;11.652;2023-05-08T07:30:29;7.72;;;6.93;;
50757;SDS011;36732;47.980;11.652;2023-05-08T07:32:55;7.88;;;6.13;;
50757;SDS011;36732;47.980;11.652;2023-05-08T07:35:21;8.48;;;7.28;;
50757;SDS011;36732;47.980;11.652;2023-05-08T07:37:47;9.90;;;6.82;;
50757;SDS011;36732;47.980;11.652;2023-05-08T07:40:12;6.82;;;5.95;;
50757;SDS011;36732;47.980;11.652;2023-05-08T07:42:41;13.10;;;7.40;;
50757;SDS011;36732;47.980;11.652;2023-05-08T07:45:08;7.80;;;6.38;;
50757;SDS011;36732;47.980;11.652;2023-05-08T07:47:36;8.13;;;6.45;;
50757;SDS011;36732;47.980;11.652;2023-05-08T07:50:23;6.53;;;5.85;;
50757;SDS011;36732;47.980;11.652;2023-05-08T07:52:50;7.57;;;5.90;;
50757;SDS011;36732;47.980;11.652;2023-05-08T07:55:17;9.50;;;6.30;;
50757;SDS011;36732;47.980;11.652;2023-05-08T07:57:43;8.73;;;7.07;;
50757;SDS011;36732;47.980;11.652;2023-05-08T08:00:10;9.02;;;7.30;;
50757;SDS011;36732;47.980;11.652;2023-05-08T08:02:38;7.43;;;6.53;;
50757;SDS011;36732;47.980;11.652;2023-05-08T08:05:04;8.90;;;6.90;;
50757;SDS011;36732;47.980;11.652;2023-05-08T08:07:30;8.65;;;7.28;;
50757;SDS011;36732;47.980;11.652;2023-05-08T08:09:57;8.48;;;7.18;;
50757;SDS011;36732;47.980;11.652;2023-05-08T08:12:23;10.73;;;8.02;;
50757;SDS011;36732;47.980;11.652;2023-05-08T08:14:49;8.48;;;7.38;;
50757;SDS011;36732;47.980;11.652;2023-05-08T08:17:15;9.88;;;7.93;;
50757;SDS011;36732;47.980;11.652;2023-05-08T08:19:41;8.70;;;7.30;;
50757;SDS011;36732;47.980;11.652;2023-05-08T08:22:07;8.82;;;7.93;;
50757;SDS011;36732;47.980;11.652;2023-05-08T08:24:32;11.93;;;7.97;;
50757;SDS011;36732;47.980;11.652;2023-05-08T08:26:58;9.25;;;7.80;;
50757;SDS011;36732;47.980;11.652;2023-05-08T08:29:24;9.77;;;7.80;;
50757;SDS011;36732;47.980;11.652;2023-05-08T08:31:50;9.10;;;8.00;;
50757;SDS011;36732;47.980;11.652;2023-05-08T08:34:15;11.80;;;9.00;;
50757;SDS011;36732;47.980;11.652;2023-05-08T08:36:41;11.18;;;8.35;;
50757;SDS011;36732;47.980;11.652;2023-05-08T08:39:07;11.27;;;7.72;;
50757;SDS011;36732;47.980;11.652;2023-05-08T08:41:33;10.25;;;8.18;;
50757;SDS011;36732;47.980;11.652;2023-05-08T08:43:59;10.63;;;8.02;;
50757;SDS011;36732;47.980;11.652;2023-05-08T08:46:25;10.00;;;7.88;;
50757;SDS011;36732;47.980;11.652;2023-05-08T08:48:53;9.02;;;8.07;;
50757;SDS011;36732;47.980;11.652;2023-05-08T08:51:24;10.98;;;8.48;;
50757;SDS011;36732;47.980;11.652;2023-05-08T08:54:03;10.90;;;8.68;;
50757;SDS011;36732;47.980;11.652;2023-05-08T08:56:40;11.13;;;8.40;;
50757;SDS011;36732;47.980;11.652;2023-05-08T08:59:10;11.77;;;9.18;;
50757;SDS011;36732;47.980;11.652;2023-05-08T09:01:38;9.55;;;8.38;;
50757;SDS011;36732;47.980;11.652;2023-05-08T09:04:05;11.50;;;8.07;;
50757;SDS011;36732;47.980;11.652;2023-05-08T09:06:39;8.98;;;7.90;;
50757;SDS011;36732;47.980;11.652;2023-05-08T09:09:05;8.88;;;7.28;;
50757;SDS011;36732;47.980;11.652;2023-05-08T09:11:31;11.50;;;9.15;;
50757;SDS011;36732;47.980;11.652;2023-05-08T09:13:57;10.13;;;8.43;;
50757;SDS011;36732;47.980;11.652;2023-05-08T09:16:24;10.45;;;8.30;;
50757;SDS011;36732;47.980;11.652;2023-05-08T09:18:51;9.60;;;7.68;;
50757;SDS011;36732;47.980;11.652;2023-05-08T09:21:17;10.95;;;8.68;;
50757;SDS011;36732;47.980;11.652;2023-05-08T09:24:02;9.38;;;7.72;;
50757;SDS011;36732;47.980;11.652;2023-05-08T09:26:29;9.30;;;7.95;;
50757;SDS011;36732;47.980;11.652;2023-05-08T09:29:14;12.25;;;8.43;;
50757;SDS011;36732;47.980;11.652;2023-05-08T09:31:49;10.63;;;8.77;;
50757;SDS011;36732;47.980;11.652;2023-05-08T09:39:36;12.95;;;8.88;;
50757;SDS011;36732;47.980;11.652;2023-05-08T09:42:07;9.45;;;7.93;;
50757;SDS011;36732;47.980;11.652;2023-05-08T09:44:43;10.80;;;9.32;;
50757;SDS011;36732;47.980;11.652;2023-05-08T09:47:23;11.13;;;8.68;;
50757;SDS011;36732;47.980;11.652;2023-05-08T09:49:56;11.07;;;9.65;;
50757;SDS011;36732;47.980;11.652;2023-05-08T09:52:25;9.80;;;8.43;;
50757;SDS011;36732;47.980;11.652;2023-05-08T09:54:59;9.60;;;8.57;;
50757;SDS011;36732;47.980;11.652;2023-05-08T09:57:30;9.82;;;8.82;;
50757;SDS011;36732;47.980;11.652;2023-05-08T10:00:01;11.23;;;9.52;;
50757;SDS011;36732;47.980;11.652;2023-05-08T10:02:30;10.13;;;8.02;;
50757;SDS011;36732;47.980;11.652;2023-05-08T10:04:56;9.77;;;8.60;;
50757;SDS011;36732;47.980;11.652;2023-05-08T10:07:26;9.95;;;8.65;;
50757;SDS011;36732;47.980;11.652;2023-05-08T10:10:04;10.00;;;8.77;;
50757;SDS011;36732;47.980;11.652;2023-05-08T10:12:31;11.10;;;8.68;;
50757;SDS011;36732;47.980;11.652;2023-05-08T10:14:58;10.43;;;9.32;;
50757;SDS011;36732;47.980;11.652;2023-05-08T10:17:24;11.68;;;10.18;;
50757;SDS011;36732;47.980;11.652;2023-05-08T10:19:57;9.05;;;8.10;;
50757;SDS011;36732;47.980;11.652;2023-05-08T10:22:27;11.02;;;9.75;;
50757;SDS011;36732;47.980;11.652;2023-05-08T10:24:55;12.88;;;9.13;;
50757;SDS011;36732;47.980;11.652;2023-05-08T10:27:27;10.25;;;9.05;;
50757;SDS011;36732;47.980;11.652;2023-05-08T10:30:01;12.02;;;9.43;;
50757;SDS011;36732;47.980;11.652;2023-05-08T10:32:30;11.35;;;9.35;;
50757;SDS011;36732;47.980;11.652;2023-05-08T10:35:04;10.68;;;9.60;;
50757;SDS011;36732;47.980;11.652;2023-05-08T10:37:34;13.07;;;11.40;;
50757;SDS011;36732;47.980;11.652;2023-05-08T10:40:02;13.52;;;11.43;;
50757;SDS011;36732;47.980;11.652;2023-05-08T10:42:29;13.45;;;10.85;;
50757;SDS011;36732;47.980;11.652;2023-05-08T10:44:58;10.32;;;9.32;;
50757;SDS011;36732;47.980;11.652;2023-05-08T10:47:28;12.38;;;10.73;;
50757;SDS011;36732;47.980;11.652;2023-05-08T10:53:05;10.57;;;9.00;;
50757;SDS011;36732;47.980;11.652;2023-05-08T10:55:40;11.15;;;10.00;;
50757;SDS011;36732;47.980;11.652;2023-05-08T11:03:16;11.00;;;9.82;;
50757;SDS011;36732;47.980;11.652;2023-05-08T11:05:50;11.38;;;9.98;;
50757;SDS011;36732;47.980;11.652;2023-05-08T11:08:18;10.30;;;9.27;;
50757;SDS011;36732;47.980;11.652;2023-05-08T11:13:46;12.15;;;9.77;;
50757;SDS011;36732;47.980;11.652;2023-05-08T11:16:16;13.57;;;10.52;;
50757;SDS011;36732;47.980;11.652;2023-05-08T11:25:11;11.27;;;10.00;;
50757;SDS011;36732;47.980;11.652;2023-05-08T11:35:42;12.15;;;10.55;;
50757;SDS011;36732;47.980;11.652;2023-05-08T11:38:15;13.63;;;11.38;;
50757;SDS011;36732;47.980;11.652;2023-05-08T11:46:01;13.07;;;11.68;;
50757;SDS011;36732;47.980;11.652;2023-05-08T11:48:35;13.18;;;11.15;;
50757;SDS011;36732;47.980;11.652;2023-05-08T11:51:01;12.82;;;11.52;;
50757;SDS011;36732;47.980;11.652;2023-05-08T11:53:28;15.07;;;12.68;;
50757;SDS011;36732;47.980;11.652;2023-05-08T11:55:55;16.58;;;13.00;;
50757;SDS011;36732;47.980;11.652;2023-05-08T11:58:21;14.55;;;12.40;;
50757;SDS011;36732;47.980;11.652;2023-05-08T12:00:47;15.38;;;11.98;;
50757;SDS011;36732;47.980;11.652;2023-05-08T12:03:14;13.82;;;12.18;;
50757;SDS011;36732;47.980;11.652;2023-05-08T12:05:42;14.50;;;12.50;;
50757;SDS011;36732;47.980;11.652;2023-05-08T12:08:09;15.50;;;11.93;;
50757;SDS011;36732;47.980;11.652;2023-05-08T12:10:40;13.55;;;12.13;;
50757;SDS011;36732;47.980;11.652;2023-05-08T12:13:18;14.82;;;13.27;;
50757;SDS011;36732;47.980;11.652;2023-05-08T12:15:46;17.13;;;14.02;;
50757;SDS011;36732;47.980;11.652;2023-05-08T12:18:14;15.60;;;14.00;;
50757;SDS011;36732;47.980;11.652;2023-05-08T12:20:41;17.25;;;12.55;;
50757;SDS011;36732;47.980;11.652;2023-05-08T12:23:08;15.45;;;13.77;;
50757;SDS011;36732;47.980;11.652;2023-05-08T12:25:37;15.05;;;13.45;;
50757;SDS011;36732;47.980;11.652;2023-05-08T12:28:06;16.02;;;13.35;;
50757;SDS011;36732;47.980;11.652;2023-05-08T12:30:34;20.42;;;13.27;;
50757;SDS011;36732;47.980;11.652;2023-05-08T12:33:00;16.30;;;13.50;;
50757;SDS011;36732;47.980;11.652;2023-05-08T12:35:28;15.18;;;13.05;;
50757;SDS011;36732;47.980;11.652;2023-05-08T12:37:59;16.30;;;14.43;;
50757;SDS011;36732;47.980;11.652;2023-05-08T12:40:28;15.77;;;14.05;;
50757;SDS011;36732;47.980;11.652;2023-05-08T12:42:56;16.65;;;13.82;;
50757;SDS011;36732;47.980;11.652;2023-05-08T12:45:46;15.55;;;13.80;;
50757;SDS011;36732;47.980;11.652;2023-05-08T12:48:11;16.17;;;14.20;;
50757;SDS011;36732;47.980;11.652;2023-05-08T12:50:43;18.55;;;15.32;;
50757;SDS011;36732;47.980;11.652;2023-05-08T12:53:13;16.63;;;14.85;;
50757;SDS011;36732;47.980;11.652;2023-05-08T12:55:54;16.63;;;14.43;;
50757;SDS011;36732;47.980;11.652;2023-05-08T12:58:31;17.38;;;14.60;;
50757;SDS011;36732;47.980;11.652;2023-05-08T13:01:05;15.85;;;13.05;;
50757;SDS011;36732;47.980;11.652;2023-05-08T13:03:37;16.55;;;14.70;;
50757;SDS011;36732;47.980;11.652;2023-05-08T13:06:04;16.85;;;13.73;;
50757;SDS011;36732;47.980;11.652;2023-05-08T13:08:34;16.02;;;13.55;;
50757;SDS011;36732;47.980;11.652;2023-05-08T13:11:03;14.32;;;12.88;;
50757;SDS011;36732;47.980;11.652;2023-05-08T13:13:30;14.27;;;12.52;;
50757;SDS011;36732;47.980;11.652;2023-05-08T13:16:01;15.82;;;13.10;;
50757;SDS011;36732;47.980;11.652;2023-05-08T13:18:28;15.82;;;14.15;;
50757;SDS011;36732;47.980;11.652;2023-05-08T13:20:54;17.15;;;14.23;;
50757;SDS011;36732;47.980;11.652;2023-05-08T13:23:20;15.30;;;12.95;;
50757;SDS011;36732;47.980;11.652;2023-05-08T13:25:46;13.77;;;12.32;;
50757;SDS011;36732;47.980;11.652;2023-05-08T13:28:12;15.20;;;13.25;;
50757;SDS011;36732;47.980;11.652;2023-05-08T13:30:38;15.30;;;13.65;;
50757;SDS011;36732;47.980;11.652;2023-05-08T13:33:04;16.42;;;14.45;;
50757;SDS011;36732;47.980;11.652;2023-05-08T13:35:30;15.07;;;13.48;;
50757;SDS011;36732;47.980;11.652;2023-05-08T13:37:57;13.77;;;12.38;;
50757;SDS011;36732;47.980;11.652;2023-05-08T13:40:23;14.40;;;11.68;;
50757;SDS011;36732;47.980;11.652;2023-05-08T13:42:50;14.02;;;12.52;;
50757;SDS011;36732;47.980;11.652;2023-05-08T13:45:16;14.05;;;12.60;;
50757;SDS011;36732;47.980;11.652;2023-05-08T13:47:45;16.67;;;14.05;;
50757;SDS011;36732;47.980;11.652;2023-05-08T13:50:13;15.93;;;13.02;;
50757;SDS011;36732;47.980;11.652;2023-05-08T13:52:41;14.30;;;12.82;;
50757;SDS011;36732;47.980;11.652;2023-05-08T13:55:07;13.80;;;11.70;;
50757;SDS011;36732;47.980;11.652;2023-05-08T13:57:36;15.32;;;13.73;;
50757;SDS011;36732;47.980;11.652;2023-05-08T14:00:03;16.67;;;14.13;;
50757;SDS011;36732;47.980;11.652;2023-05-08T14:02:30;16.05;;;14.38;;
50757;SDS011;36732;47.980;11.652;2023-05-08T14:04:56;17.13;;;13.65;;
50757;SDS011;36732;47.980;11.652;2023-05-08T14:07:22;14.75;;;13.15;;
50757;SDS011;36732;47.980;11.652;2023-05-08T14:09:47;15.10;;;13.32;;
50757;SDS011;36732;47.980;11.652;2023-05-08T14:12:13;17.05;;;15.27;;
50757;SDS011;36732;47.980;11.652;2023-05-08T14:14:39;16.60;;;14.82;;
50757;SDS011;36732;47.980;11.652;2023-05-08T14:17:05;17.23;;;15.43;;
50757;SDS011;36732;47.980;11.652;2023-05-08T14:19:31;15.43;;;13.80;;
50757;SDS011;36732;47.980;11.652;2023-05-08T14:21:57;16.38;;;14.68;;
50757;SDS011;36732;47.980;11.652;2023-05-08T14:24:23;15.48;;;13.88;;
50757;SDS011;36732;47.980;11.652;2023-05-08T14:26:49;18.08;;;16.08;;
50757;SDS011;36732;47.980;11.652;2023-05-08T14:29:15;17.88;;;15.68;;
50757;SDS011;36732;47.980;11.652;2023-05-08T14:31:43;17.05;;;14.65;;
50757;SDS011;36732;47.980;11.652;2023-05-08T14:34:09;19.63;;;16.50;;
50757;SDS011;36732;47.980;11.652;2023-05-08T14:36:34;18.38;;;16.33;;
50757;SDS011;36732;47.980;11.652;2023-05-08T14:39:00;17.63;;;15.07;;
50757;SDS011;36732;47.980;11.652;2023-05-08T14:41:29;15.73;;;14.20;;
50757;SDS011;36732;47.980;11.652;2023-05-08T14:43:56;18.45;;;15.77;;
50757;SDS011;36732;47.980;11.652;2023-05-08T14:46:22;20.45;;;16.63;;
50757;SDS011;36732;47.980;11.652;2023-05-08T14:48:49;16.80;;;14.27;;
50757;SDS011;36732;47.980;11.652;2023-05-08T14:51:15;17.63;;;15.77;;
50757;SDS011;36732;47.980;11.652;2023-05-08T14:53:43;15.07;;;13.52;;
50757;SDS011;36732;47.980;11.652;2023-05-08T14:56:09;15.77;;;14.02;;
50757;SDS011;36732;47.980;11.652;2023-05-08T14:58:37;14.63;;;12.25;;
50757;SDS011;36732;47.980;11.652;2023-05-08T15:01:03;13.85;;;12.32;;
50757;SDS011;36732;47.980;11.652;2023-05-08T15:03:29;14.15;;;12.25;;
50757;SDS011;36732;47.980;11.652;2023-05-08T15:05:55;14.50;;;12.80;;
50757;SDS011;36732;47.980;11.652;2023-05-08T15:08:20;13.90;;;12.50;;
50757;SDS011;36732;47.980;11.652;2023-05-08T15:10:46;16.52;;;14.38;;
50757;SDS011;36732;47.980;11.652;2023-05-08T15:13:12;15.63;;;13.85;;
50757;SDS011;36732;47.980;11.652;2023-05-08T15:15:37;13.77;;;12.02;;
50757;SDS011;36732;47.980;11.652;2023-05-08T15:18:03;13.82;;;12.35;;
50757;SDS011;36732;47.980;11.652;2023-05-08T15:20:29;15.13;;;13.07;;
50757;SDS011;36732;47.980;11.652;2023-05-08T15:22:55;12.95;;;11.65;;
50757;SDS011;36732;47.980;11.652;2023-05-08T15:25:20;16.20;;;11.85;;
50757;SDS011;36732;47.980;11.652;2023-05-08T15:27:46;13.30;;;11.88;;
50757;SDS011;36732;47.980;11.652;2023-05-08T15:30:16;11.88;;;10.63;;
50757;SDS011;36732;47.980;11.652;2023-05-08T15:32:43;12.70;;;10.23;;
50757;SDS011;36732;47.980;11.652;2023-05-08T15:35:09;10.73;;;9.40;;
50757;SDS011;36732;47.980;11.652;2023-05-08T15:37:35;12.43;;;11.13;;
50757;SDS011;36732;47.980;11.652;2023-05-08T15:40:02;11.48;;;10.27;;
50757;SDS011;36732;47.980;11.652;2023-05-08T15:42:28;11.35;;;9.63;;
50757;SDS011;36732;47.980;11.652;2023-05-08T15:44:57;11.35;;;9.35;;
50757;SDS011;36732;47.980;11.652;2023-05-08T15:47:23;14.25;;;9.70;;
50757;SDS011;36732;47.980;11.652;2023-05-08T15:49:51;11.27;;;9.38;;
50757;SDS011;36732;47.980;11.652;2023-05-08T15:52:17;10.07;;;9.07;;
50757;SDS011;36732;47.980;11.652;2023-05-08T15:54:44;11.48;;;9.02;;